sensor_id;sensor_type;location;lat;lon;timestamp;temperature;humidity
28530;DHT22;15737;49.760;6.632;2022-10-26T00:03:32;11.40;99.90
28530;DHT22;15737;49.760;6.632;2022-10-26T00:06:03;11.60;99.90
28530;DHT22;15737;49.760;6.632;2022-10-26T00:08:32;11.60;99.90
28530;DHT22;15737;49.760;6.632;2022-10-26T00:10:58;11.50;99.90
28530;DHT22;15737;49.760;6.632;2022-10-26T00:13:23;11.40;99.90
28530;DHT22;15737;49.760;6.632;2022-10-26T00:15:49;11.30;99.90
28530;DHT22;15737;49.760;6.632;2022-10-26T00:18:14;11.30;99.90
28530;DHT22;15737;49.760;6.632;2022-10-26T00:20:40;11.30;99.90
28530;DHT22;15737;49.760;6.632;2022-10-26T00:23:06;11.30;99.90
28530;DHT22;15737;49.760;6.632;2022-10-26T00:25:32;11.40;99.90
28530;DHT22;15737;49.760;6.632;2022-10-26T00:27:57;11.50;99.90
28530;DHT22;15737;49.760;6.632;2022-10-26T00:30:23;11.50;99.90
28530;DHT22;15737;49.760;6.632;2022-10-26T00:32:48;11.60;99.90
28530;DHT22;15737;49.760;6.632;2022-10-26T00:35:14;11.50;99.90
28530;DHT22;15737;49.760;6.632;2022-10-26T00:37:39;11.50;99.90
28530;DHT22;15737;49.760;6.632;2022-10-26T00:40:05;11.60;99.90
28530;DHT22;15737;49.760;6.632;2022-10-26T00:42:31;11.60;99.90
28530;DHT22;15737;49.760;6.632;2022-10-26T00:45:22;11.60;99.90
28530;DHT22;15737;49.760;6.632;2022-10-26T00:47:55;11.60;99.90
28530;DHT22;15737;49.760;6.632;2022-10-26T00:50:25;11.60;99.90
28530;DHT22;15737;49.760;6.632;2022-10-26T00:52:52;11.50;99.90
28530;DHT22;15737;49.760;6.632;2022-10-26T00:55:20;11.50;99.90
28530;DHT22;15737;49.760;6.632;2022-10-26T00:57:50;11.60;99.90
28530;DHT22;15737;49.760;6.632;2022-10-26T01:00:17;11.60;99.90
28530;DHT22;15737;49.760;6.632;2022-10-26T01:02:45;11.70;99.90
28530;DHT22;15737;49.760;6.632;2022-10-26T01:05:13;11.80;99.90
28530;DHT22;15737;49.760;6.632;2022-10-26T01:07:40;11.80;99.90
28530;DHT22;15737;49.760;6.632;2022-10-26T01:10:07;11.80;99.90
28530;DHT22;15737;49.760;6.632;2022-10-26T01:12:33;11.90;99.90
28530;DHT22;15737;49.760;6.632;2022-10-26T01:14:59;11.80;99.90
28530;DHT22;15737;49.760;6.632;2022-10-26T01:17:42;11.80;99.90
28530;DHT22;15737;49.760;6.632;2022-10-26T01:20:38;11.70;99.90
28530;DHT22;15737;49.760;6.632;2022-10-26T01:23:33;11.70;99.90
28530;DHT22;15737;49.760;6.632;2022-10-26T01:26:17;11.70;99.90
28530;DHT22;15737;49.760;6.632;2022-10-26T01:29:35;11.70;99.90
28530;DHT22;15737;49.760;6.632;2022-10-26T01:32:01;11.70;99.90
28530;DHT22;15737;49.760;6.632;2022-10-26T01:35:16;11.60;99.90
28530;DHT22;15737;49.760;6.632;2022-10-26T01:37:28;11.60;99.90
28530;DHT22;15737;49.760;6.632;2022-10-26T01:40:02;11.60;99.90
28530;DHT22;15737;49.760;6.632;2022-10-26T01:42:31;11.60;99.90
28530;DHT22;15737;49.760;6.632;2022-10-26T01:45:05;11.60;99.90
28530;DHT22;15737;49.760;6.632;2022-10-26T01:47:33;11.60;99.90
28530;DHT22;15737;49.760;6.632;2022-10-26T01:50:01;11.70;99.90
28530;DHT22;15737;49.760;6.632;2022-10-26T01:52:28;11.70;99.90
28530;DHT22;15737;49.760;6.632;2022-10-26T01:55:03;11.70;99.90
28530;DHT22;15737;49.760;6.632;2022-10-26T01:57:32;11.80;99.90
28530;DHT22;15737;49.760;6.632;2022-10-26T02:00:10;11.90;99.90
28530;DHT22;15737;49.760;6.632;2022-10-26T02:02:59;11.90;99.90
28530;DHT22;15737;49.760;6.632;2022-10-26T02:05:35;11.90;99.90
28530;DHT22;15737;49.760;6.632;2022-10-26T02:13:16;12.10;99.90
28530;DHT22;15737;49.760;6.632;2022-10-26T02:16:14;12.00;99.90
28530;DHT22;15737;49.760;6.632;2022-10-26T02:21:36;11.90;99.90
28530;DHT22;15737;49.760;6.632;2022-10-26T02:24:03;11.80;99.90
28530;DHT22;15737;49.760;6.632;2022-10-26T02:26:31;11.90;99.90
28530;DHT22;15737;49.760;6.632;2022-10-26T02:29:02;11.90;99.90
28530;DHT22;15737;49.760;6.632;2022-10-26T02:31:30;11.80;99.90
28530;DHT22;15737;49.760;6.632;2022-10-26T02:33:59;11.80;99.90
28530;DHT22;15737;49.760;6.632;2022-10-26T02:36:29;11.70;99.90
28530;DHT22;15737;49.760;6.632;2022-10-26T02:38:59;11.70;99.90
28530;DHT22;15737;49.760;6.632;2022-10-26T02:41:27;11.70;99.90
28530;DHT22;15737;49.760;6.632;2022-10-26T02:44:06;11.70;99.90
28530;DHT22;15737;49.760;6.632;2022-10-26T02:46:33;11.70;99.90
28530;DHT22;15737;49.760;6.632;2022-10-26T02:48:59;11.80;99.90
28530;DHT22;15737;49.760;6.632;2022-10-26T02:51:44;11.80;99.90
28530;DHT22;15737;49.760;6.632;2022-10-26T02:54:25;11.80;99.90
28530;DHT22;15737;49.760;6.632;2022-10-26T02:57:02;11.70;99.90
28530;DHT22;15737;49.760;6.632;2022-10-26T02:59:32;11.70;99.90
28530;DHT22;15737;49.760;6.632;2022-10-26T03:01:59;11.60;99.90
28530;DHT22;15737;49.760;6.632;2022-10-26T03:04:33;11.70;99.90
28530;DHT22;15737;49.760;6.632;2022-10-26T03:06:59;11.70;99.90
28530;DHT22;15737;49.760;6.632;2022-10-26T03:09:25;11.70;99.90
28530;DHT22;15737;49.760;6.632;2022-10-26T03:11:51;11.70;99.90
28530;DHT22;15737;49.760;6.632;2022-10-26T03:14:17;11.70;99.90
28530;DHT22;15737;49.760;6.632;2022-10-26T03:16:42;11.80;99.90
28530;DHT22;15737;49.760;6.632;2022-10-26T03:19:08;11.90;99.90
28530;DHT22;15737;49.760;6.632;2022-10-26T03:21:33;12.00;99.90
28530;DHT22;15737;49.760;6.632;2022-10-26T03:23:59;12.00;99.90
28530;DHT22;15737;49.760;6.632;2022-10-26T03:26:24;12.10;99.90
28530;DHT22;15737;49.760;6.632;2022-10-26T03:28:50;12.00;99.90
28530;DHT22;15737;49.760;6.632;2022-10-26T03:31:15;12.00;99.90
28530;DHT22;15737;49.760;6.632;2022-10-26T03:33:41;11.90;99.90
28530;DHT22;15737;49.760;6.632;2022-10-26T03:36:07;11.90;99.90
28530;DHT22;15737;49.760;6.632;2022-10-26T03:38:33;11.70;99.90
28530;DHT22;15737;49.760;6.632;2022-10-26T03:40:58;11.70;99.90
28530;DHT22;15737;49.760;6.632;2022-10-26T03:43:24;11.60;99.90
28530;DHT22;15737;49.760;6.632;2022-10-26T03:45:49;11.50;99.90
28530;DHT22;15737;49.760;6.632;2022-10-26T03:48:15;11.40;99.90
28530;DHT22;15737;49.760;6.632;2022-10-26T03:50:40;11.50;99.90
28530;DHT22;15737;49.760;6.632;2022-10-26T03:53:07;11.60;99.90
28530;DHT22;15737;49.760;6.632;2022-10-26T03:55:32;11.70;99.90
28530;DHT22;15737;49.760;6.632;2022-10-26T03:57:58;11.70;99.90
28530;DHT22;15737;49.760;6.632;2022-10-26T04:00:23;11.60;99.90
28530;DHT22;15737;49.760;6.632;2022-10-26T04:02:57;11.50;99.90
28530;DHT22;15737;49.760;6.632;2022-10-26T04:05:24;11.40;99.90
28530;DHT22;15737;49.760;6.632;2022-10-26T04:07:57;11.30;99.90
28530;DHT22;15737;49.760;6.632;2022-10-26T04:10:24;11.20;99.90
28530;DHT22;15737;49.760;6.632;2022-10-26T04:12:50;11.10;99.90
28530;DHT22;15737;49.760;6.632;2022-10-26T04:15:16;11.20;99.90
28530;DHT22;15737;49.760;6.632;2022-10-26T04:17:42;11.20;99.90
28530;DHT22;15737;49.760;6.632;2022-10-26T04:20:08;11.20;99.90
28530;DHT22;15737;49.760;6.632;2022-10-26T04:22:34;11.30;99.90
28530;DHT22;15737;49.760;6.632;2022-10-26T04:25:01;11.30;99.90
28530;DHT22;15737;49.760;6.632;2022-10-26T04:27:27;11.30;99.90
28530;DHT22;15737;49.760;6.632;2022-10-26T04:29:52;11.30;99.90
28530;DHT22;15737;49.760;6.632;2022-10-26T04:32:17;11.30;99.90
28530;DHT22;15737;49.760;6.632;2022-10-26T04:34:43;11.30;99.90
28530;DHT22;15737;49.760;6.632;2022-10-26T04:37:08;11.30;99.90
28530;DHT22;15737;49.760;6.632;2022-10-26T04:41:59;11.30;99.90
28530;DHT22;15737;49.760;6.632;2022-10-26T04:44:25;11.30;99.90
28530;DHT22;15737;49.760;6.632;2022-10-26T04:46:50;11.30;99.90
28530;DHT22;15737;49.760;6.632;2022-10-26T04:49:16;11.20;99.90
28530;DHT22;15737;49.760;6.632;2022-10-26T04:51:44;11.10;99.90
28530;DHT22;15737;49.760;6.632;2022-10-26T04:54:09;11.20;99.90
28530;DHT22;15737;49.760;6.632;2022-10-26T04:56:35;11.10;99.90
28530;DHT22;15737;49.760;6.632;2022-10-26T04:59:01;11.00;99.90
28530;DHT22;15737;49.760;6.632;2022-10-26T05:01:26;11.00;99.90
28530;DHT22;15737;49.760;6.632;2022-10-26T05:03:52;10.90;99.90
28530;DHT22;15737;49.760;6.632;2022-10-26T05:06:18;10.90;99.90
28530;DHT22;15737;49.760;6.632;2022-10-26T05:08:44;10.90;99.90
28530;DHT22;15737;49.760;6.632;2022-10-26T05:11:10;10.90;99.90
28530;DHT22;15737;49.760;6.632;2022-10-26T05:13:35;11.00;99.90
28530;DHT22;15737;49.760;6.632;2022-10-26T05:16:01;11.00;99.90
28530;DHT22;15737;49.760;6.632;2022-10-26T05:18:27;11.00;99.90
28530;DHT22;15737;49.760;6.632;2022-10-26T05:20:53;11.20;99.90
28530;DHT22;15737;49.760;6.632;2022-10-26T05:23:19;11.20;99.90
28530;DHT22;15737;49.760;6.632;2022-10-26T05:25:44;11.20;99.90
28530;DHT22;15737;49.760;6.632;2022-10-26T05:28:11;11.30;99.90
28530;DHT22;15737;49.760;6.632;2022-10-26T05:30:38;11.30;99.90
28530;DHT22;15737;49.760;6.632;2022-10-26T05:33:04;11.40;99.90
28530;DHT22;15737;49.760;6.632;2022-10-26T05:35:31;11.40;99.90
28530;DHT22;15737;49.760;6.632;2022-10-26T05:37:57;11.50;99.90
28530;DHT22;15737;49.760;6.632;2022-10-26T05:40:23;11.50;99.90
28530;DHT22;15737;49.760;6.632;2022-10-26T05:42:48;11.50;99.90
28530;DHT22;15737;49.760;6.632;2022-10-26T05:45:15;11.60;99.90
28530;DHT22;15737;49.760;6.632;2022-10-26T05:47:43;11.60;99.90
28530;DHT22;15737;49.760;6.632;2022-10-26T05:50:09;11.60;99.90
28530;DHT22;15737;49.760;6.632;2022-10-26T05:52:39;11.60;99.90
28530;DHT22;15737;49.760;6.632;2022-10-26T05:55:06;11.60;99.90
28530;DHT22;15737;49.760;6.632;2022-10-26T05:57:32;11.60;99.90
28530;DHT22;15737;49.760;6.632;2022-10-26T05:59:58;11.50;99.90
28530;DHT22;15737;49.760;6.632;2022-10-26T06:02:32;11.50;99.90
28530;DHT22;15737;49.760;6.632;2022-10-26T06:05:02;11.50;99.90
28530;DHT22;15737;49.760;6.632;2022-10-26T06:07:29;11.50;99.90
28530;DHT22;15737;49.760;6.632;2022-10-26T06:09:54;11.60;99.90
28530;DHT22;15737;49.760;6.632;2022-10-26T06:12:20;11.70;99.90
28530;DHT22;15737;49.760;6.632;2022-10-26T06:14:46;11.70;99.90
28530;DHT22;15737;49.760;6.632;2022-10-26T06:23:11;11.70;99.90
28530;DHT22;15737;49.760;6.632;2022-10-26T06:25:54;11.70;99.90
28530;DHT22;15737;49.760;6.632;2022-10-26T06:28:49;11.80;99.90
28530;DHT22;15737;49.760;6.632;2022-10-26T06:31:17;11.80;99.90
28530;DHT22;15737;49.760;6.632;2022-10-26T06:33:43;11.80;99.90
28530;DHT22;15737;49.760;6.632;2022-10-26T06:36:21;11.70;99.90
28530;DHT22;15737;49.760;6.632;2022-10-26T06:38:50;11.70;99.90
28530;DHT22;15737;49.760;6.632;2022-10-26T06:41:17;11.80;99.90
28530;DHT22;15737;49.760;6.632;2022-10-26T06:43:44;11.90;99.90
28530;DHT22;15737;49.760;6.632;2022-10-26T06:49:13;12.20;99.90
28530;DHT22;15737;49.760;6.632;2022-10-26T06:51:50;12.90;99.90
28530;DHT22;15737;49.760;6.632;2022-10-26T06:54:30;13.50;99.90
28530;DHT22;15737;49.760;6.632;2022-10-26T06:57:08;14.00;99.90
28530;DHT22;15737;49.760;6.632;2022-10-26T06:59:52;14.20;99.90
28530;DHT22;15737;49.760;6.632;2022-10-26T07:02:19;14.30;99.90
28530;DHT22;15737;49.760;6.632;2022-10-26T07:04:45;16.00;99.90
28530;DHT22;15737;49.760;6.632;2022-10-26T07:07:16;18.10;99.90
28530;DHT22;15737;49.760;6.632;2022-10-26T07:09:42;20.40;99.90
28530;DHT22;15737;49.760;6.632;2022-10-26T07:12:07;22.30;99.90
28530;DHT22;15737;49.760;6.632;2022-10-26T07:14:33;23.90;99.90
28530;DHT22;15737;49.760;6.632;2022-10-26T07:16:59;24.20;99.90
28530;DHT22;15737;49.760;6.632;2022-10-26T07:19:25;24.90;99.90
28530;DHT22;15737;49.760;6.632;2022-10-26T07:21:52;26.00;99.90
28530;DHT22;15737;49.760;6.632;2022-10-26T07:24:18;26.80;99.90
28530;DHT22;15737;49.760;6.632;2022-10-26T07:26:43;26.80;99.90
28530;DHT22;15737;49.760;6.632;2022-10-26T07:29:09;24.40;99.90
28530;DHT22;15737;49.760;6.632;2022-10-26T07:31:34;21.40;99.90
28530;DHT22;15737;49.760;6.632;2022-10-26T07:34:00;19.30;99.90
28530;DHT22;15737;49.760;6.632;2022-10-26T07:36:28;17.80;99.90
28530;DHT22;15737;49.760;6.632;2022-10-26T07:38:53;16.70;99.90
28530;DHT22;15737;49.760;6.632;2022-10-26T07:41:19;16.40;99.90
28530;DHT22;15737;49.760;6.632;2022-10-26T07:43:44;17.40;99.90
28530;DHT22;15737;49.760;6.632;2022-10-26T07:46:11;21.20;99.90
28530;DHT22;15737;49.760;6.632;2022-10-26T07:48:36;25.10;99.90
28530;DHT22;15737;49.760;6.632;2022-10-26T07:51:04;27.10;99.80
28530;DHT22;15737;49.760;6.632;2022-10-26T07:53:29;27.50;97.50
28530;DHT22;15737;49.760;6.632;2022-10-26T07:55:56;26.10;94.60
28530;DHT22;15737;49.760;6.632;2022-10-26T07:58:22;23.40;97.50
28530;DHT22;15737;49.760;6.632;2022-10-26T08:00:50;23.70;97.70
28530;DHT22;15737;49.760;6.632;2022-10-26T08:03:17;25.20;95.70
28530;DHT22;15737;49.760;6.632;2022-10-26T08:05:45;26.50;93.00
28530;DHT22;15737;49.760;6.632;2022-10-26T08:08:25;28.00;90.70
28530;DHT22;15737;49.760;6.632;2022-10-26T08:10:51;29.60;85.60
28530;DHT22;15737;49.760;6.632;2022-10-26T08:13:17;29.70;76.90
28530;DHT22;15737;49.760;6.632;2022-10-26T08:15:42;29.40;79.90
28530;DHT22;15737;49.760;6.632;2022-10-26T08:18:08;29.10;79.50
28530;DHT22;15737;49.760;6.632;2022-10-26T08:20:33;28.10;82.40
28530;DHT22;15737;49.760;6.632;2022-10-26T08:22:59;27.70;82.70
28530;DHT22;15737;49.760;6.632;2022-10-26T08:25:26;26.60;86.30
28530;DHT22;15737;49.760;6.632;2022-10-26T08:27:51;24.50;90.20
28530;DHT22;15737;49.760;6.632;2022-10-26T08:30:17;22.20;93.60
28530;DHT22;15737;49.760;6.632;2022-10-26T08:32:43;20.30;97.60
28530;DHT22;15737;49.760;6.632;2022-10-26T08:35:09;19.10;99.90
28530;DHT22;15737;49.760;6.632;2022-10-26T08:37:35;18.50;99.90
28530;DHT22;15737;49.760;6.632;2022-10-26T08:40:01;18.00;99.90
28530;DHT22;15737;49.760;6.632;2022-10-26T08:42:40;17.70;99.90
28530;DHT22;15737;49.760;6.632;2022-10-26T08:45:17;17.40;99.90
28530;DHT22;15737;49.760;6.632;2022-10-26T08:47:49;17.20;99.90
28530;DHT22;15737;49.760;6.632;2022-10-26T08:50:48;17.10;99.90
28530;DHT22;15737;49.760;6.632;2022-10-26T08:53:20;17.00;99.90
28530;DHT22;15737;49.760;6.632;2022-10-26T08:55:52;16.90;99.90
28530;DHT22;15737;49.760;6.632;2022-10-26T08:58:22;16.80;99.90
28530;DHT22;15737;49.760;6.632;2022-10-26T09:00:50;16.80;99.90
28530;DHT22;15737;49.760;6.632;2022-10-26T09:03:18;16.80;99.90
28530;DHT22;15737;49.760;6.632;2022-10-26T09:05:59;16.80;99.90
28530;DHT22;15737;49.760;6.632;2022-10-26T09:09:02;16.90;99.90
28530;DHT22;15737;49.760;6.632;2022-10-26T09:16:56;17.30;99.90
28530;DHT22;15737;49.760;6.632;2022-10-26T09:22:50;17.50;99.90
28530;DHT22;15737;49.760;6.632;2022-10-26T09:25:18;17.70;99.90
28530;DHT22;15737;49.760;6.632;2022-10-26T09:27:47;17.80;99.90
28530;DHT22;15737;49.760;6.632;2022-10-26T09:30:17;17.90;99.90
28530;DHT22;15737;49.760;6.632;2022-10-26T09:32:47;18.10;99.90
28530;DHT22;15737;49.760;6.632;2022-10-26T09:35:21;18.30;99.90
28530;DHT22;15737;49.760;6.632;2022-10-26T09:43:31;19.30;99.90
28530;DHT22;15737;49.760;6.632;2022-10-26T09:45:57;19.70;99.90
28530;DHT22;15737;49.760;6.632;2022-10-26T09:48:34;20.20;99.90
28530;DHT22;15737;49.760;6.632;2022-10-26T09:51:01;20.70;99.90
28530;DHT22;15737;49.760;6.632;2022-10-26T09:53:32;20.70;99.90
28530;DHT22;15737;49.760;6.632;2022-10-26T09:56:04;21.30;99.90
28530;DHT22;15737;49.760;6.632;2022-10-26T09:58:34;22.40;99.90
28530;DHT22;15737;49.760;6.632;2022-10-26T10:01:00;23.70;99.90
28530;DHT22;15737;49.760;6.632;2022-10-26T10:03:30;24.90;99.90
28530;DHT22;15737;49.760;6.632;2022-10-26T10:06:26;25.10;99.90
28530;DHT22;15737;49.760;6.632;2022-10-26T10:09:13;24.60;99.90
28530;DHT22;15737;49.760;6.632;2022-10-26T10:11:49;25.00;99.90
28530;DHT22;15737;49.760;6.632;2022-10-26T10:14:24;26.80;98.90
28530;DHT22;15737;49.760;6.632;2022-10-26T10:17:03;28.20;95.20
28530;DHT22;15737;49.760;6.632;2022-10-26T10:19:38;29.00;92.50
28530;DHT22;15737;49.760;6.632;2022-10-26T10:25:00;28.70;87.70
28530;DHT22;15737;49.760;6.632;2022-10-26T10:27:27;28.30;90.00
28530;DHT22;15737;49.760;6.632;2022-10-26T10:29:58;28.30;89.10
28530;DHT22;15737;49.760;6.632;2022-10-26T10:32:30;27.70;88.20
28530;DHT22;15737;49.760;6.632;2022-10-26T10:34:58;27.90;89.60
28530;DHT22;15737;49.760;6.632;2022-10-26T10:37:34;28.50;87.00
28530;DHT22;15737;49.760;6.632;2022-10-26T10:42:37;27.90;86.40
28530;DHT22;15737;49.760;6.632;2022-10-26T10:45:05;27.70;86.10
28530;DHT22;15737;49.760;6.632;2022-10-26T10:47:33;27.30;87.50
28530;DHT22;15737;49.760;6.632;2022-10-26T10:50:06;27.70;86.90
28530;DHT22;15737;49.760;6.632;2022-10-26T10:52:46;27.90;85.50
28530;DHT22;15737;49.760;6.632;2022-10-26T10:55:19;28.50;83.30
28530;DHT22;15737;49.760;6.632;2022-10-26T10:58:09;28.20;83.20
28530;DHT22;15737;49.760;6.632;2022-10-26T11:00:40;28.10;82.20
28530;DHT22;15737;49.760;6.632;2022-10-26T11:03:20;27.80;83.70
28530;DHT22;15737;49.760;6.632;2022-10-26T11:06:10;27.70;84.10
28530;DHT22;15737;49.760;6.632;2022-10-26T11:09:03;27.70;83.90
28530;DHT22;15737;49.760;6.632;2022-10-26T11:11:37;27.40;84.20
28530;DHT22;15737;49.760;6.632;2022-10-26T11:14:23;27.70;83.20
28530;DHT22;15737;49.760;6.632;2022-10-26T11:16:54;27.20;83.20
28530;DHT22;15737;49.760;6.632;2022-10-26T11:19:32;26.30;85.50
28530;DHT22;15737;49.760;6.632;2022-10-26T11:22:02;26.10;87.90
28530;DHT22;15737;49.760;6.632;2022-10-26T11:24:41;26.90;88.10
28530;DHT22;15737;49.760;6.632;2022-10-26T11:27:15;27.70;85.80
28530;DHT22;15737;49.760;6.632;2022-10-26T11:30:04;27.60;83.80
28530;DHT22;15737;49.760;6.632;2022-10-26T11:32:43;27.60;84.50
28530;DHT22;15737;49.760;6.632;2022-10-26T11:35:51;27.50;83.80
28530;DHT22;15737;49.760;6.632;2022-10-26T11:38:37;27.10;83.70
28530;DHT22;15737;49.760;6.632;2022-10-26T11:41:28;26.20;86.80
28530;DHT22;15737;49.760;6.632;2022-10-26T11:44:33;26.30;87.50
28530;DHT22;15737;49.760;6.632;2022-10-26T11:47:15;26.70;87.30
28530;DHT22;15737;49.760;6.632;2022-10-26T11:49:56;27.10;85.70
28530;DHT22;15737;49.760;6.632;2022-10-26T11:52:33;27.00;84.90
28530;DHT22;15737;49.760;6.632;2022-10-26T11:55:01;27.00;84.80
28530;DHT22;15737;49.760;6.632;2022-10-26T11:57:31;26.90;85.60
28530;DHT22;15737;49.760;6.632;2022-10-26T12:00:14;27.30;84.00
28530;DHT22;15737;49.760;6.632;2022-10-26T12:02:42;27.10;84.40
28530;DHT22;15737;49.760;6.632;2022-10-26T12:10:41;26.70;85.20
28530;DHT22;15737;49.760;6.632;2022-10-26T12:13:53;27.10;85.60
28530;DHT22;15737;49.760;6.632;2022-10-26T12:19:11;27.80;81.50
28530;DHT22;15737;49.760;6.632;2022-10-26T12:21:40;27.70;82.90
28530;DHT22;15737;49.760;6.632;2022-10-26T12:24:41;27.50;82.10
28530;DHT22;15737;49.760;6.632;2022-10-26T12:27:28;26.70;83.20
28530;DHT22;15737;49.760;6.632;2022-10-26T12:30:33;25.70;86.10
28530;DHT22;15737;49.760;6.632;2022-10-26T12:32:59;25.50;87.20
28530;DHT22;15737;49.760;6.632;2022-10-26T12:35:31;25.60;87.10
28530;DHT22;15737;49.760;6.632;2022-10-26T12:40:44;25.80;85.70
28530;DHT22;15737;49.760;6.632;2022-10-26T12:45:42;25.90;85.40
28530;DHT22;15737;49.760;6.632;2022-10-26T12:48:23;26.00;85.20
28530;DHT22;15737;49.760;6.632;2022-10-26T12:50:52;25.80;84.60
28530;DHT22;15737;49.760;6.632;2022-10-26T12:53:21;25.40;85.10
28530;DHT22;15737;49.760;6.632;2022-10-26T12:56:03;25.10;85.80
28530;DHT22;15737;49.760;6.632;2022-10-26T13:01:33;24.70;86.50
28530;DHT22;15737;49.760;6.632;2022-10-26T13:07:08;24.80;87.20
28530;DHT22;15737;49.760;6.632;2022-10-26T13:09:37;25.40;85.80
28530;DHT22;15737;49.760;6.632;2022-10-26T13:12:03;25.40;85.00
28530;DHT22;15737;49.760;6.632;2022-10-26T13:14:35;25.40;85.20
28530;DHT22;15737;49.760;6.632;2022-10-26T13:17:04;25.40;84.60
28530;DHT22;15737;49.760;6.632;2022-10-26T13:19:40;25.50;84.00
28530;DHT22;15737;49.760;6.632;2022-10-26T13:22:20;25.60;82.90
28530;DHT22;15737;49.760;6.632;2022-10-26T13:24:48;25.40;82.30
28530;DHT22;15737;49.760;6.632;2022-10-26T13:32:19;25.00;83.70
28530;DHT22;15737;49.760;6.632;2022-10-26T13:34:46;25.00;83.90
28530;DHT22;15737;49.760;6.632;2022-10-26T13:37:23;25.30;83.50
28530;DHT22;15737;49.760;6.632;2022-10-26T13:39:52;25.50;81.10
28530;DHT22;15737;49.760;6.632;2022-10-26T13:42:24;25.10;80.50
28530;DHT22;15737;49.760;6.632;2022-10-26T13:44:57;24.60;81.80
28530;DHT22;15737;49.760;6.632;2022-10-26T13:50:27;25.50;81.90
28530;DHT22;15737;49.760;6.632;2022-10-26T13:53:00;25.30;82.00
28530;DHT22;15737;49.760;6.632;2022-10-26T13:58:21;25.30;80.60
28530;DHT22;15737;49.760;6.632;2022-10-26T14:03:17;24.90;82.20
28530;DHT22;15737;49.760;6.632;2022-10-26T14:05:47;24.70;82.10
28530;DHT22;15737;49.760;6.632;2022-10-26T14:08:16;24.30;82.60
28530;DHT22;15737;49.760;6.632;2022-10-26T14:10:46;24.00;83.40
28530;DHT22;15737;49.760;6.632;2022-10-26T14:13:15;24.00;83.30
28530;DHT22;15737;49.760;6.632;2022-10-26T14:15:45;24.10;83.70
28530;DHT22;15737;49.760;6.632;2022-10-26T14:18:17;24.70;82.30
28530;DHT22;15737;49.760;6.632;2022-10-26T14:21:01;24.90;81.50
28530;DHT22;15737;49.760;6.632;2022-10-26T14:25:58;25.30;80.40
28530;DHT22;15737;49.760;6.632;2022-10-26T14:28:26;25.50;78.90
28530;DHT22;15737;49.760;6.632;2022-10-26T14:30:52;25.20;79.30
28530;DHT22;15737;49.760;6.632;2022-10-26T14:33:22;25.10;79.80
28530;DHT22;15737;49.760;6.632;2022-10-26T14:38:23;25.10;79.80
28530;DHT22;15737;49.760;6.632;2022-10-26T14:40:55;25.10;80.20
28530;DHT22;15737;49.760;6.632;2022-10-26T14:43:23;25.00;79.40
28530;DHT22;15737;49.760;6.632;2022-10-26T14:45:53;24.70;80.80
28530;DHT22;15737;49.760;6.632;2022-10-26T14:48:26;24.40;81.10
28530;DHT22;15737;49.760;6.632;2022-10-26T14:50:58;23.90;81.80
28530;DHT22;15737;49.760;6.632;2022-10-26T14:53:39;23.40;83.00
28530;DHT22;15737;49.760;6.632;2022-10-26T14:56:23;23.20;84.00
28530;DHT22;15737;49.760;6.632;2022-10-26T14:58:49;22.90;84.60
28530;DHT22;15737;49.760;6.632;2022-10-26T15:03:53;22.30;86.30
28530;DHT22;15737;49.760;6.632;2022-10-26T15:08:55;22.80;87.00
28530;DHT22;15737;49.760;6.632;2022-10-26T15:11:21;23.10;85.80
28530;DHT22;15737;49.760;6.632;2022-10-26T15:13:46;23.30;85.50
28530;DHT22;15737;49.760;6.632;2022-10-26T15:16:23;23.20;85.20
28530;DHT22;15737;49.760;6.632;2022-10-26T15:18:55;23.10;86.00
28530;DHT22;15737;49.760;6.632;2022-10-26T15:21:32;23.00;85.50
28530;DHT22;15737;49.760;6.632;2022-10-26T15:23:58;22.70;86.20
28530;DHT22;15737;49.760;6.632;2022-10-26T15:26:24;22.50;87.00
28530;DHT22;15737;49.760;6.632;2022-10-26T15:28:51;22.40;88.70
28530;DHT22;15737;49.760;6.632;2022-10-26T15:36:29;21.90;90.00
28530;DHT22;15737;49.760;6.632;2022-10-26T15:38:57;21.70;90.20
28530;DHT22;15737;49.760;6.632;2022-10-26T15:41:32;21.70;90.40
28530;DHT22;15737;49.760;6.632;2022-10-26T15:44:02;21.50;90.70
28530;DHT22;15737;49.760;6.632;2022-10-26T15:46:32;21.30;91.10
28530;DHT22;15737;49.760;6.632;2022-10-26T15:48:59;21.10;91.50
28530;DHT22;15737;49.760;6.632;2022-10-26T15:51:26;20.90;91.90
28530;DHT22;15737;49.760;6.632;2022-10-26T15:53:53;20.70;92.40
28530;DHT22;15737;49.760;6.632;2022-10-26T15:56:21;20.50;93.10
28530;DHT22;15737;49.760;6.632;2022-10-26T15:58:48;20.30;93.60
28530;DHT22;15737;49.760;6.632;2022-10-26T16:01:22;20.10;94.10
28530;DHT22;15737;49.760;6.632;2022-10-26T16:03:48;19.90;94.70
28530;DHT22;15737;49.760;6.632;2022-10-26T16:06:17;19.60;95.30
28530;DHT22;15737;49.760;6.632;2022-10-26T16:08:49;19.30;96.10
28530;DHT22;15737;49.760;6.632;2022-10-26T16:11:15;19.00;96.80
28530;DHT22;15737;49.760;6.632;2022-10-26T16:13:40;18.80;97.60
28530;DHT22;15737;49.760;6.632;2022-10-26T16:16:12;18.60;98.20
28530;DHT22;15737;49.760;6.632;2022-10-26T16:18:38;18.30;98.70
28530;DHT22;15737;49.760;6.632;2022-10-26T16:21:03;18.00;99.30
28530;DHT22;15737;49.760;6.632;2022-10-26T16:23:29;17.80;99.90
28530;DHT22;15737;49.760;6.632;2022-10-26T16:25:54;17.60;99.90
28530;DHT22;15737;49.760;6.632;2022-10-26T16:28:20;17.30;99.90
28530;DHT22;15737;49.760;6.632;2022-10-26T16:30:45;17.10;99.90
28530;DHT22;15737;49.760;6.632;2022-10-26T16:33:11;16.90;99.90
28530;DHT22;15737;49.760;6.632;2022-10-26T16:35:37;16.80;99.90
28530;DHT22;15737;49.760;6.632;2022-10-26T16:38:02;16.70;99.90
28530;DHT22;15737;49.760;6.632;2022-10-26T16:40:28;16.60;99.90
28530;DHT22;15737;49.760;6.632;2022-10-26T16:42:53;16.40;99.90
28530;DHT22;15737;49.760;6.632;2022-10-26T16:45:19;16.30;99.90
28530;DHT22;15737;49.760;6.632;2022-10-26T16:47:44;16.10;99.90
28530;DHT22;15737;49.760;6.632;2022-10-26T16:50:11;16.10;99.90
28530;DHT22;15737;49.760;6.632;2022-10-26T16:52:37;16.00;99.90
28530;DHT22;15737;49.760;6.632;2022-10-26T16:55:04;16.00;99.90
28530;DHT22;15737;49.760;6.632;2022-10-26T16:57:30;15.90;99.90
28530;DHT22;15737;49.760;6.632;2022-10-26T16:59:56;15.80;99.90
28530;DHT22;15737;49.760;6.632;2022-10-26T17:02:23;15.70;99.90
28530;DHT22;15737;49.760;6.632;2022-10-26T17:04:48;15.70;99.90
28530;DHT22;15737;49.760;6.632;2022-10-26T17:07:14;15.60;99.90
28530;DHT22;15737;49.760;6.632;2022-10-26T17:09:39;15.60;99.90
28530;DHT22;15737;49.760;6.632;2022-10-26T17:12:05;15.50;99.90
28530;DHT22;15737;49.760;6.632;2022-10-26T17:14:30;15.40;99.90
28530;DHT22;15737;49.760;6.632;2022-10-26T17:16:57;15.30;99.90
28530;DHT22;15737;49.760;6.632;2022-10-26T17:19:22;15.20;99.90
28530;DHT22;15737;49.760;6.632;2022-10-26T17:21:48;15.10;99.90